createdAt,value
2022-10-28T00:00:07.524Z,101054.97
2022-10-28T00:02:33.874Z,101046.34
2022-10-28T00:05:00.271Z,101042.59
2022-10-28T00:07:28.178Z,101035.72
2022-10-28T00:09:54.478Z,101035.25
2022-10-28T00:12:20.819Z,101040.19
2022-10-28T00:14:47.146Z,101029.28
2022-10-28T00:17:13.552Z,101037.97
2022-10-28T00:19:39.894Z,101040.03
2022-10-28T00:22:06.227Z,101040.19
2022-10-28T00:24:32.607Z,101034.63
2022-10-28T00:26:58.935Z,101030.16
2022-10-28T00:29:25.234Z,101021.97
2022-10-28T00:31:51.581Z,101017.38
2022-10-28T00:34:19.946Z,101006.19
2022-10-28T00:36:47.599Z,101003.16
2022-10-28T00:39:22.089Z,101023.69
2022-10-28T00:41:52.475Z,101032.50
2022-10-28T00:44:52.388Z,101044.19
2022-10-28T00:47:53.005Z,101032.91
2022-10-28T00:50:22.735Z,101036.94
2022-10-28T00:52:54.145Z,101034.13
2022-10-28T00:55:21.615Z,101035.63
2022-10-28T00:57:49.427Z,101031.78
2022-10-28T01:00:16.684Z,101022.56
2022-10-28T01:02:46.883Z,101019.13
2022-10-28T01:05:16.203Z,101019.31
2022-10-28T01:07:43.614Z,101006.78
2022-10-28T01:10:11.412Z,101012.44
2022-10-28T01:12:58.318Z,101008.09
2022-10-28T01:15:33.415Z,101004.94
2022-10-28T01:18:10.754Z,101006.44
2022-10-28T01:21:07.796Z,100999.03
2022-10-28T01:23:58.658Z,101004.50
2022-10-28T01:26:42.573Z,100995.19
2022-10-28T01:29:26.937Z,100976.78
2022-10-28T01:32:02.551Z,100966.78
2022-10-28T01:34:40.760Z,100976.28
2022-10-28T01:37:32.105Z,100972.69
2022-10-28T01:40:08.317Z,100981.56
2022-10-28T01:42:43.716Z,100971.75
2022-10-28T01:45:23.215Z,100967.56
2022-10-28T01:47:58.650Z,100971.13
2022-10-28T01:50:31.654Z,100973.78
2022-10-28T01:53:03.407Z,100971.91
2022-10-28T01:55:37.392Z,100976.72
2022-10-28T01:58:05.701Z,100970.25
2022-10-28T02:00:33.839Z,100974.84
2022-10-28T02:03:00.228Z,100961.00
2022-10-28T02:05:48.130Z,100958.63
2022-10-28T02:08:42.754Z,100951.84
2022-10-28T02:11:30.167Z,100938.47
2022-10-28T02:14:12.503Z,100946.16
2022-10-28T02:16:46.707Z,100937.03
2022-10-28T02:19:16.022Z,100931.06
2022-10-28T02:22:04.195Z,100926.25
2022-10-28T02:24:54.471Z,100928.00
2022-10-28T02:27:26.670Z,100926.94
2022-10-28T02:30:07.848Z,100920.03
2022-10-28T02:32:40.856Z,100916.31
2022-10-28T02:35:13.928Z,100915.47
2022-10-28T02:37:41.453Z,100909.81
2022-10-28T02:40:19.039Z,100903.72
2022-10-28T02:42:55.955Z,100912.09
2022-10-28T02:45:27.075Z,100901.53
2022-10-28T02:48:07.036Z,100903.59
2022-10-28T02:50:40.183Z,100902.97
2022-10-28T02:53:18.856Z,100899.25
2022-10-28T02:55:51.361Z,100904.25
2022-10-28T02:58:18.029Z,100903.59
2022-10-28T03:00:46.425Z,100889.28
2022-10-28T03:03:13.705Z,100892.47
2022-10-28T03:05:40.020Z,100895.69
2022-10-28T03:08:06.707Z,100896.66
2022-10-28T03:10:33.027Z,100884.25
2022-10-28T03:12:59.322Z,100890.22
2022-10-28T03:15:25.677Z,100887.00
2022-10-28T03:17:52.297Z,100891.97
2022-10-28T03:20:18.826Z,100890.22
2022-10-28T03:22:45.121Z,100887.31
2022-10-28T03:25:11.517Z,100898.22
2022-10-28T03:27:40.635Z,100893.38
2022-10-28T03:30:07.393Z,100894.72
2022-10-28T03:32:33.711Z,100899.47
2022-10-28T03:35:00.004Z,100896.84
2022-10-28T03:37:26.409Z,100895.22
2022-10-28T03:39:52.731Z,100893.25
2022-10-28T03:42:19.025Z,100899.34
2022-10-28T03:44:45.338Z,100898.09
2022-10-28T03:47:11.624Z,100891.66
2022-10-28T03:49:37.957Z,100887.25
2022-10-28T03:52:04.415Z,100889.34
2022-10-28T03:54:30.710Z,100880.56
2022-10-28T03:56:57.009Z,100881.34
2022-10-28T03:59:23.385Z,100875.38
2022-10-28T04:01:49.775Z,100873.63
2022-10-28T04:04:16.227Z,100878.47
2022-10-28T04:06:42.558Z,100876.41
2022-10-28T04:09:08.854Z,100881.72
2022-10-28T04:11:35.169Z,100872.69
2022-10-28T04:14:01.537Z,100878.75
2022-10-28T04:16:27.864Z,100872.66
2022-10-28T04:18:54.180Z,100867.66
2022-10-28T04:21:20.740Z,100870.22
2022-10-28T04:23:47.070Z,100862.19
2022-10-28T04:26:13.366Z,100864.63
2022-10-28T04:28:39.706Z,100861.59
2022-10-28T04:31:06.046Z,100857.91
2022-10-28T04:33:32.349Z,100853.88
2022-10-28T04:35:58.667Z,100848.41
2022-10-28T04:40:56.261Z,100851.25
2022-10-28T04:43:22.627Z,100847.47
2022-10-28T04:45:49.006Z,100851.50
2022-10-28T04:48:15.362Z,100862.22
2022-10-28T04:50:41.694Z,100846.56
2022-10-28T04:53:08.013Z,100841.81
2022-10-28T04:55:34.337Z,100845.00
2022-10-28T04:58:00.708Z,100840.03
2022-10-28T05:00:28.737Z,100845.66
2022-10-28T05:02:55.377Z,100836.97
2022-10-28T05:05:22.268Z,100841.63
2022-10-28T05:07:48.650Z,100842.44
2022-10-28T05:10:15.106Z,100840.22
2022-10-28T05:12:42.072Z,100834.41
2022-10-28T05:15:09.338Z,100834.19
2022-10-28T05:17:35.651Z,100833.72
2022-10-28T05:20:01.972Z,100833.56
2022-10-28T05:22:28.318Z,100828.56
2022-10-28T05:24:54.723Z,100829.38
2022-10-28T05:27:21.140Z,100832.59
2022-10-28T05:29:47.458Z,100825.34
2022-10-28T05:32:13.770Z,100823.72
2022-10-28T05:34:40.100Z,100825.50
2022-10-28T05:37:06.402Z,100822.75
2022-10-28T05:39:32.732Z,100833.69
2022-10-28T05:41:59.050Z,100832.06
2022-10-28T05:44:25.387Z,100826.59
2022-10-28T05:46:51.704Z,100826.47
2022-10-28T05:49:18.013Z,100824.34
2022-10-28T05:51:44.357Z,100828.84
2022-10-28T05:54:10.698Z,100826.38
2022-10-28T05:56:37.005Z,100825.69
2022-10-28T05:59:03.586Z,100833.59
2022-10-28T06:01:29.972Z,100829.91
2022-10-28T06:03:56.381Z,100837.78
2022-10-28T06:06:22.711Z,100831.69
2022-10-28T06:08:49.027Z,100842.25
2022-10-28T06:11:13.787Z,100846.09
2022-10-28T06:13:40.082Z,100840.66
2022-10-28T06:16:07.037Z,100838.84
2022-10-28T06:18:33.333Z,100836.88
2022-10-28T06:20:59.647Z,100844.44
2022-10-28T06:23:26.270Z,100850.38
2022-10-28T06:28:29.251Z,100863.75
2022-10-28T06:31:06.544Z,100870.00
2022-10-28T06:33:33.418Z,100858.63
2022-10-28T06:36:00.350Z,100856.91
2022-10-28T06:38:27.743Z,100861.38
2022-10-28T06:40:56.478Z,100873.19
2022-10-28T06:43:22.786Z,100864.19
2022-10-28T06:45:49.094Z,100863.41
2022-10-28T06:48:16.930Z,100863.63
2022-10-28T06:50:43.246Z,100861.94
2022-10-28T06:53:09.582Z,100867.31
2022-10-28T06:55:36.624Z,100875.53
2022-10-28T06:58:03.951Z,100875.72
2022-10-28T07:03:02.827Z,100871.13
2022-10-28T07:05:29.277Z,100876.97
2022-10-28T07:07:56.026Z,100879.22
2022-10-28T07:10:22.644Z,100877.63
2022-10-28T07:12:48.961Z,100880.19
2022-10-28T07:15:15.389Z,100883.59
2022-10-28T07:17:41.757Z,100887.31
2022-10-28T07:20:08.551Z,100882.94
2022-10-28T07:22:34.909Z,100891.97
2022-10-28T07:25:01.248Z,100890.22
2022-10-28T07:27:27.626Z,100887.34
2022-10-28T07:29:53.949Z,100884.75
2022-10-28T07:32:20.263Z,100891.69
2022-10-28T07:34:46.581Z,100890.56
2022-10-28T07:37:12.920Z,100886.38
2022-10-28T07:39:39.313Z,100883.47
2022-10-28T07:42:05.682Z,100883.97
2022-10-28T07:44:32.016Z,100884.78
2022-10-28T07:46:58.542Z,100892.84
2022-10-28T07:49:25.165Z,100883.69
2022-10-28T07:51:51.492Z,100883.22
2022-10-28T07:54:17.817Z,100886.91
2022-10-28T07:56:44.204Z,100892.38
2022-10-28T07:59:10.580Z,100894.59
2022-10-28T08:01:37.027Z,100896.69
2022-10-28T08:04:03.612Z,100896.19
2022-10-28T08:06:29.963Z,100904.88
2022-10-28T08:08:56.790Z,100902.59
2022-10-28T08:11:23.636Z,100903.38
2022-10-28T08:13:51.481Z,100894.81
2022-10-28T08:16:18.055Z,100896.41
2022-10-28T08:18:44.894Z,100897.03
2022-10-28T08:21:12.041Z,100892.91
2022-10-28T08:23:38.718Z,100883.78
2022-10-28T08:26:05.793Z,100889.22
2022-10-28T08:28:32.103Z,100893.31
2022-10-28T08:31:10.483Z,100892.78
2022-10-28T08:33:39.270Z,100902.03
2022-10-28T08:36:06.985Z,100902.09
2022-10-28T08:38:33.463Z,100904.81
2022-10-28T08:41:18.964Z,100894.84
2022-10-28T08:44:31.858Z,100899.91
2022-10-28T08:47:15.732Z,100901.91
2022-10-28T08:49:45.813Z,100897.06
2022-10-28T08:52:43.219Z,100894.34
2022-10-28T08:55:17.206Z,100898.00
2022-10-28T08:57:55.124Z,100890.56
2022-10-28T09:00:25.606Z,100894.84
2022-10-28T09:03:01.675Z,100892.09
2022-10-28T09:05:28.347Z,100882.28
2022-10-28T09:07:56.279Z,100892.59
2022-10-28T09:10:42.444Z,100884.81
2022-10-28T09:13:48.604Z,100886.06
2022-10-28T09:16:41.978Z,100896.97
2022-10-28T09:19:17.581Z,100890.81
2022-10-28T09:21:51.463Z,100888.88
2022-10-28T09:24:23.854Z,100882.22
2022-10-28T09:27:08.734Z,100880.09
2022-10-28T09:29:50.377Z,100877.28
2022-10-28T09:32:35.299Z,100882.56
2022-10-28T09:35:19.107Z,100874.22
2022-10-28T09:37:56.621Z,100867.44
2022-10-28T09:40:30.839Z,100860.91
2022-10-28T09:43:25.124Z,100860.75
2022-10-28T09:45:55.403Z,100862.75
2022-10-28T09:48:29.321Z,100866.22
2022-10-28T09:50:58.180Z,100861.41
2022-10-28T09:53:48.463Z,100856.78
2022-10-28T09:56:15.124Z,100874.59
2022-10-28T09:58:46.031Z,100880.66
2022-10-28T10:01:13.472Z,100881.91
2022-10-28T10:03:40.277Z,100873.09
2022-10-28T10:06:13.293Z,100870.13
2022-10-28T10:08:41.360Z,100871.75
2022-10-28T10:11:41.181Z,100872.63
2022-10-28T10:14:12.022Z,100853.84
2022-10-28T10:16:47.242Z,100863.84
2022-10-28T10:19:13.597Z,100865.44
2022-10-28T10:21:48.851Z,100861.72
2022-10-28T10:24:36.381Z,100859.97
2022-10-28T10:27:17.094Z,100853.53
2022-10-28T10:29:45.721Z,100849.78
2022-10-28T10:32:31.809Z,100847.97
2022-10-28T10:35:05.609Z,100857.78
2022-10-28T10:37:35.660Z,100851.44
2022-10-28T10:40:25.334Z,100856.72
2022-10-28T10:43:10.029Z,100865.91
2022-10-28T10:45:38.816Z,100864.38
2022-10-28T10:48:15.582Z,100851.59
2022-10-28T10:50:45.143Z,100852.00
2022-10-28T10:53:32.397Z,100854.25
2022-10-28T10:56:01.909Z,100850.09
2022-10-28T10:58:32.399Z,100854.56
2022-10-28T11:01:01.181Z,100853.88
2022-10-28T11:03:32.677Z,100841.81
2022-10-28T11:06:21.939Z,100845.72
2022-10-28T11:08:47.263Z,100838.72
2022-10-28T11:11:15.021Z,100837.00
2022-10-28T11:13:45.180Z,100829.06
2022-10-28T11:16:24.082Z,100826.84
2022-10-28T11:18:52.509Z,100815.78
2022-10-28T11:21:48.184Z,100810.13
2022-10-28T11:24:25.685Z,100821.41
2022-10-28T11:27:00.139Z,100817.50
2022-10-28T11:29:26.669Z,100811.13
2022-10-28T11:32:26.018Z,100821.31
2022-10-28T11:35:17.198Z,100814.44
2022-10-28T11:37:49.388Z,100822.25
2022-10-28T11:40:28.922Z,100812.03
2022-10-28T11:43:13.678Z,100810.88
2022-10-28T11:45:58.738Z,100816.16
2022-10-28T11:48:34.185Z,100817.56
2022-10-28T11:51:12.281Z,100813.69
2022-10-28T11:54:06.724Z,100808.97
2022-10-28T11:56:42.121Z,100810.31
2022-10-28T11:59:47.142Z,100810.38
2022-10-28T12:02:33.475Z,100805.88
2022-10-28T12:05:28.225Z,100810.69
2022-10-28T12:08:03.652Z,100802.50
2022-10-28T12:10:42.083Z,100805.91
2022-10-28T12:13:56.723Z,100796.56
2022-10-28T12:16:43.354Z,100791.81
2022-10-28T12:19:17.109Z,100786.44
2022-10-28T12:22:01.027Z,100793.50
2022-10-28T12:24:30.200Z,100785.53
2022-10-28T12:27:00.520Z,100782.91
2022-10-28T12:29:31.201Z,100780.81
2022-10-28T12:32:02.996Z,100779.69
2022-10-28T12:34:41.662Z,100766.16
2022-10-28T12:37:13.613Z,100770.97
2022-10-28T12:39:47.324Z,100777.63
2022-10-28T12:42:22.308Z,100772.03
2022-10-28T12:44:52.862Z,100761.44
2022-10-28T12:47:42.149Z,100766.28
2022-10-28T12:50:19.394Z,100763.84
2022-10-28T12:53:16.689Z,100765.41
2022-10-28T12:55:50.520Z,100760.34
2022-10-28T12:58:39.332Z,100756.50
2022-10-28T13:01:18.454Z,100760.25
2022-10-28T13:03:45.006Z,100763.44
2022-10-28T13:06:47.844Z,100752.38
2022-10-28T13:09:34.735Z,100759.50
2022-10-28T13:12:28.760Z,100747.31
2022-10-28T13:15:16.094Z,100750.84
2022-10-28T13:18:00.962Z,100746.84
2022-10-28T13:20:48.029Z,100748.50
2022-10-28T13:23:45.146Z,100742.53
2022-10-28T13:26:37.841Z,100746.38
2022-10-28T13:29:06.860Z,100741.63
2022-10-28T13:31:41.943Z,100738.97
2022-10-28T13:34:09.482Z,100738.69
2022-10-28T13:36:39.697Z,100737.84
2022-10-28T13:39:21.236Z,100729.38
2022-10-28T13:41:49.056Z,100722.31
2022-10-28T13:44:27.115Z,100734.81
2022-10-28T13:46:59.330Z,100733.72
2022-10-28T13:49:32.713Z,100729.41
2022-10-28T13:52:07.862Z,100729.44
2022-10-28T13:54:43.264Z,100725.25
2022-10-28T13:57:34.682Z,100722.53
2022-10-28T14:00:06.845Z,100725.19
2022-10-28T14:02:47.006Z,100717.66
2022-10-28T14:05:16.116Z,100722.28
2022-10-28T14:08:01.302Z,100728.78
2022-10-28T14:10:27.565Z,100717.72
2022-10-28T14:13:05.197Z,100720.69
2022-10-28T14:15:35.403Z,100720.81
2022-10-28T14:18:37.484Z,100719.38
2022-10-28T14:21:00.442Z,100722.19
2022-10-28T14:23:26.761Z,100716.91
2022-10-28T14:25:53.040Z,100723.63
2022-10-28T14:28:28.458Z,100729.00
2022-10-28T14:31:10.014Z,100726.41
2022-10-28T14:34:04.619Z,100730.56
2022-10-28T14:36:39.410Z,100733.09
2022-10-28T14:39:35.081Z,100733.25
2022-10-28T14:42:34.041Z,100729.50
2022-10-28T14:45:20.324Z,100734.13
2022-10-28T14:48:25.941Z,100744.97
2022-10-28T14:50:53.133Z,100737.03
2022-10-28T14:53:25.504Z,100740.91
2022-10-28T14:56:00.755Z,100747.19
2022-10-28T14:58:30.603Z,100727.78
2022-10-28T15:01:20.741Z,100730.66
2022-10-28T15:03:54.276Z,100734.94
2022-10-28T15:06:36.021Z,100730.00
2022-10-28T15:09:22.190Z,100730.75
2022-10-28T15:11:53.181Z,100735.53
2022-10-28T15:14:25.359Z,100732.25
2022-10-28T15:16:52.683Z,100734.50
2022-10-28T15:19:24.997Z,100739.25
2022-10-28T15:22:15.728Z,100736.53
2022-10-28T15:24:51.766Z,100734.13
2022-10-28T15:27:18.508Z,100730.13
2022-10-28T15:29:44.928Z,100740.59
2022-10-28T15:32:21.716Z,100734.63
2022-10-28T15:34:48.714Z,100742.50
2022-10-28T15:37:24.311Z,100740.63
2022-10-28T15:39:51.504Z,100738.50
2022-10-28T15:42:36.140Z,100738.97
2022-10-28T15:45:02.860Z,100752.50
2022-10-28T15:47:32.611Z,100751.78
2022-10-28T15:50:17.035Z,100759.03
2022-10-28T15:52:45.360Z,100765.97
2022-10-28T15:55:35.606Z,100763.50
2022-10-28T15:58:16.469Z,100762.06
2022-10-28T16:00:56.657Z,100777.16
2022-10-28T16:03:49.420Z,100769.53
2022-10-28T16:06:27.625Z,100773.00
2022-10-28T16:09:15.649Z,100778.84
2022-10-28T16:11:46.650Z,100777.59
2022-10-28T16:14:31.050Z,100786.91
2022-10-28T16:17:23.447Z,100790.31
2022-10-28T16:20:18.192Z,100791.22
2022-10-28T16:22:45.458Z,100791.34
2022-10-28T16:25:20.168Z,100795.63
2022-10-28T16:27:46.993Z,100801.78
2022-10-28T16:30:13.717Z,100795.72
2022-10-28T16:32:50.308Z,100810.28
2022-10-28T16:35:19.331Z,100816.69
2022-10-28T16:37:49.354Z,100812.81
2022-10-28T16:40:45.693Z,100819.91
2022-10-28T16:43:03.864Z,100822.19
2022-10-28T16:45:30.259Z,100831.59
2022-10-28T16:47:56.717Z,100829.31
2022-10-28T16:50:23.236Z,100831.16
2022-10-28T16:52:49.557Z,100834.13
2022-10-28T16:55:16.612Z,100828.63
2022-10-28T16:57:42.971Z,100839.16
2022-10-28T17:00:13.143Z,100833.88
2022-10-28T17:02:39.751Z,100841.91
2022-10-28T17:05:06.762Z,100842.84
2022-10-28T17:07:33.146Z,100850.78
2022-10-28T17:09:59.489Z,100854.06
2022-10-28T17:12:27.291Z,100857.63
2022-10-28T17:14:53.609Z,100854.75
2022-10-28T17:17:20.413Z,100860.59
2022-10-28T17:19:46.828Z,100860.47
2022-10-28T17:22:13.800Z,100862.44
2022-10-28T17:24:40.134Z,100865.75
2022-10-28T17:27:07.397Z,100872.09
2022-10-28T17:29:33.780Z,100874.94
2022-10-28T17:32:00.093Z,100884.28
2022-10-28T17:34:26.418Z,100892.66
2022-10-28T17:36:52.715Z,100884.16
2022-10-28T17:39:24.796Z,100884.06
2022-10-28T17:41:52.389Z,100891.66
2022-10-28T17:44:18.731Z,100901.31
2022-10-28T17:46:45.166Z,100901.31
2022-10-28T17:49:11.480Z,100907.63
2022-10-28T17:51:38.227Z,100910.97
2022-10-28T17:54:04.579Z,100904.53
2022-10-28T17:56:30.906Z,100903.19
2022-10-28T17:58:57.328Z,100915.56
2022-10-28T18:01:23.811Z,100916.25
2022-10-28T18:03:51.117Z,100915.09
2022-10-28T18:06:17.461Z,100918.53
2022-10-28T18:08:44.356Z,100913.97
2022-10-28T18:11:13.725Z,100919.44
2022-10-28T18:13:43.465Z,100920.34
2022-10-28T18:16:14.771Z,100912.34
2022-10-28T18:18:42.943Z,100927.44
2022-10-28T18:21:11.184Z,100929.25
2022-10-28T18:23:38.058Z,100928.66
2022-10-28T18:26:05.832Z,100931.03
2022-10-28T18:28:34.407Z,100922.06
2022-10-28T18:31:05.626Z,100930.56
2022-10-28T18:33:33.808Z,100934.53
2022-10-28T18:36:01.219Z,100933.69
2022-10-28T18:38:27.656Z,100938.31
2022-10-28T18:43:21.756Z,100947.44
2022-10-28T18:45:48.113Z,100942.25
2022-10-28T18:48:14.570Z,100948.22
2022-10-28T18:50:43.554Z,100965.88
2022-10-28T18:53:13.225Z,100971.56
2022-10-28T18:55:39.539Z,100969.00
2022-10-28T18:58:05.846Z,100976.84
2022-10-28T19:00:32.154Z,100965.84
2022-10-28T19:02:58.468Z,100984.91
2022-10-28T19:05:24.795Z,100975.44
2022-10-28T19:07:51.097Z,100978.47
2022-10-28T19:10:17.554Z,100978.72
2022-10-28T19:12:45.988Z,100981.00
2022-10-28T19:15:15.886Z,100989.47
2022-10-28T19:17:42.180Z,100979.16
2022-10-28T19:20:08.952Z,100975.31
2022-10-28T19:22:35.319Z,100979.91
2022-10-28T19:25:01.651Z,100985.59
2022-10-28T19:27:27.953Z,100968.91
2022-10-28T19:29:54.267Z,100980.00
2022-10-28T19:32:20.579Z,100982.63
2022-10-28T19:34:46.894Z,100981.84
2022-10-28T19:37:13.192Z,100985.38
2022-10-28T19:39:39.504Z,100997.38
2022-10-28T19:42:05.847Z,100999.78
2022-10-28T19:44:32.159Z,100996.75
2022-10-28T19:46:58.497Z,101004.84
2022-10-28T19:49:27.738Z,101016.66
2022-10-28T19:51:56.168Z,101016.03
2022-10-28T19:54:22.513Z,101026.03
2022-10-28T19:56:48.818Z,101027.06
2022-10-28T19:59:15.179Z,101035.13
2022-10-28T20:01:41.640Z,101028.16
2022-10-28T20:04:09.377Z,101034.94
2022-10-28T20:06:38.411Z,101031.53
2022-10-28T20:09:05.322Z,101043.47
2022-10-28T20:11:34.209Z,101039.13
2022-10-28T20:14:03.384Z,101041.84
2022-10-28T20:16:30.971Z,101044.28
2022-10-28T20:18:58.298Z,101048.31
2022-10-28T20:21:26.758Z,101048.78
2022-10-28T20:23:55.144Z,101054.25
2022-10-28T20:26:24.055Z,101057.31
2022-10-28T20:28:50.805Z,101065.56
2022-10-28T20:31:19.374Z,101066.03
2022-10-28T20:33:51.081Z,101077.19
2022-10-28T20:36:26.543Z,101075.41
2022-10-28T20:38:57.201Z,101078.03
2022-10-28T20:41:24.973Z,101085.31
2022-10-28T20:43:52.237Z,101079.19
2022-10-28T20:46:19.963Z,101076.09
2022-10-28T20:48:47.176Z,101076.09
2022-10-28T20:51:13.711Z,101084.66
2022-10-28T20:53:40.268Z,101091.63
2022-10-28T20:56:07.644Z,101091.63
2022-10-28T20:58:35.392Z,101098.88
2022-10-28T21:01:19.697Z,101090.63
2022-10-28T21:03:46.582Z,101081.78
2022-10-28T21:08:45.589Z,101091.94
2022-10-28T21:11:16.733Z,101096.31
2022-10-28T21:13:43.861Z,101098.25
2022-10-28T21:16:11.959Z,101095.81
2022-10-28T21:18:39.466Z,101095.81
2022-10-28T21:21:06.581Z,101091.00
2022-10-28T21:23:32.952Z,101099.38
2022-10-28T21:26:01.776Z,101104.53
2022-10-28T21:28:28.960Z,101107.94
2022-10-28T21:30:59.597Z,101107.28
2022-10-28T21:33:25.936Z,101102.09
2022-10-28T21:35:57.518Z,101098.41
2022-10-28T21:38:24.838Z,101100.66
2022-10-28T21:41:06.130Z,101108.72
2022-10-28T21:43:35.681Z,101106.94
2022-10-28T21:46:02.501Z,101101.59
2022-10-28T21:48:29.347Z,101101.44
2022-10-28T21:50:58.278Z,101102.59
2022-10-28T21:53:25.958Z,101106.91
2022-10-28T21:55:54.905Z,101107.03
2022-10-28T21:58:21.904Z,101112.69
2022-10-28T22:00:48.208Z,101106.56
2022-10-28T22:03:15.021Z,101116.72
2022-10-28T22:05:49.525Z,101111.84
2022-10-28T22:08:16.474Z,101102.16
2022-10-28T22:10:42.831Z,101109.72
2022-10-28T22:13:09.135Z,101113.66
2022-10-28T22:15:35.667Z,101117.16
2022-10-28T22:18:02.037Z,101119.06
2022-10-28T22:20:28.352Z,101127.41
2022-10-28T22:22:55.075Z,101133.50
2022-10-28T22:25:21.641Z,101120.78
2022-10-28T22:27:47.974Z,101122.53
2022-10-28T22:30:14.317Z,101131.19
2022-10-28T22:32:40.683Z,101135.22
2022-10-28T22:35:07.417Z,101137.66
2022-10-28T22:37:33.750Z,101133.97
2022-10-28T22:40:00.058Z,101133.03
2022-10-28T22:42:26.376Z,101136.75
2022-10-28T22:44:52.683Z,101135.16
2022-10-28T22:47:18.996Z,101139.50
2022-10-28T22:49:45.318Z,101135.94
2022-10-28T22:52:11.616Z,101143.47
2022-10-28T22:54:37.937Z,101127.69
2022-10-28T22:57:04.256Z,101127.53
2022-10-28T22:59:30.572Z,101132.31
2022-10-28T23:01:56.988Z,101124.91
2022-10-28T23:04:23.400Z,101131.00
2022-10-28T23:06:49.707Z,101129.41
2022-10-28T23:09:16.402Z,101126.66
2022-10-28T23:11:42.710Z,101143.22
2022-10-28T23:14:09.028Z,101145.88
2022-10-28T23:16:35.342Z,101144.06
2022-10-28T23:19:01.674Z,101151.41
2022-10-28T23:21:28.198Z,101158.19
2022-10-28T23:23:59.866Z,101162.53
2022-10-28T23:26:28.551Z,101153.00
2022-10-28T23:28:57.298Z,101160.63
2022-10-28T23:31:24.363Z,101160.88
2022-10-28T23:33:52.882Z,101162.00
2022-10-28T23:36:19.229Z,101172.47
2022-10-28T23:38:45.644Z,101162.94
2022-10-28T23:41:14.538Z,101162.13
2022-10-28T23:43:41.470Z,101158.94
2022-10-28T23:46:08.278Z,101149.34
2022-10-28T23:48:34.642Z,101165.91
2022-10-28T23:51:00.952Z,101160.88
2022-10-28T23:55:54.949Z,101164.16
2022-10-28T23:58:22.193Z,101167.03
